sensor_id;sensor_type;location;lat;lon;timestamp;temperature;humidity
73643;DHT22;61938;48.652;9.292;2022-11-18T00:01:28;7.60;99.90
73643;DHT22;61938;48.652;9.292;2022-11-18T00:03:54;7.60;99.90
73643;DHT22;61938;48.652;9.292;2022-11-18T00:06:25;7.60;99.90
73643;DHT22;61938;48.652;9.292;2022-11-18T00:08:51;7.60;99.90
73643;DHT22;61938;48.652;9.292;2022-11-18T00:11:20;7.60;99.90
73643;DHT22;61938;48.652;9.292;2022-11-18T00:14:06;7.60;99.90
73643;DHT22;61938;48.652;9.292;2022-11-18T00:16:50;7.60;99.90
73643;DHT22;61938;48.652;9.292;2022-11-18T00:19:17;7.60;99.90
73643;DHT22;61938;48.652;9.292;2022-11-18T00:21:42;7.60;99.90
73643;DHT22;61938;48.652;9.292;2022-11-18T00:24:08;7.60;99.90
73643;DHT22;61938;48.652;9.292;2022-11-18T00:26:33;7.60;99.90
73643;DHT22;61938;48.652;9.292;2022-11-18T00:29:00;7.60;99.90
73643;DHT22;61938;48.652;9.292;2022-11-18T00:31:26;8.20;99.90
73643;DHT22;61938;48.652;9.292;2022-11-18T00:33:52;7.70;99.90
73643;DHT22;61938;48.652;9.292;2022-11-18T00:36:17;7.60;99.90
73643;DHT22;61938;48.652;9.292;2022-11-18T00:38:43;7.70;99.90
73643;DHT22;61938;48.652;9.292;2022-11-18T00:41:11;7.70;99.90
73643;DHT22;61938;48.652;9.292;2022-11-18T00:43:38;7.70;99.90
73643;DHT22;61938;48.652;9.292;2022-11-18T00:46:04;7.70;99.90
73643;DHT22;61938;48.652;9.292;2022-11-18T00:48:30;7.70;99.90
73643;DHT22;61938;48.652;9.292;2022-11-18T00:51:04;7.70;99.90
73643;DHT22;61938;48.652;9.292;2022-11-18T00:53:30;7.60;99.90
73643;DHT22;61938;48.652;9.292;2022-11-18T00:55:55;7.70;99.90
73643;DHT22;61938;48.652;9.292;2022-11-18T00:58:21;7.60;99.90
73643;DHT22;61938;48.652;9.292;2022-11-18T01:00:50;7.70;99.90
73643;DHT22;61938;48.652;9.292;2022-11-18T01:03:16;7.60;99.90
73643;DHT22;61938;48.652;9.292;2022-11-18T01:05:42;7.70;99.90
73643;DHT22;61938;48.652;9.292;2022-11-18T01:08:09;7.70;99.90
73643;DHT22;61938;48.652;9.292;2022-11-18T01:10:36;7.70;99.90
73643;DHT22;61938;48.652;9.292;2022-11-18T01:13:03;7.70;99.90
73643;DHT22;61938;48.652;9.292;2022-11-18T01:15:46;7.70;99.90
73643;DHT22;61938;48.652;9.292;2022-11-18T01:18:12;7.60;99.90
73643;DHT22;61938;48.652;9.292;2022-11-18T01:20:39;7.60;99.90
73643;DHT22;61938;48.652;9.292;2022-11-18T01:23:05;7.60;99.90
73643;DHT22;61938;48.652;9.292;2022-11-18T01:25:30;7.60;99.90
73643;DHT22;61938;48.652;9.292;2022-11-18T01:27:56;7.60;99.90
73643;DHT22;61938;48.652;9.292;2022-11-18T01:30:22;7.60;99.90
73643;DHT22;61938;48.652;9.292;2022-11-18T01:32:48;7.60;99.90
73643;DHT22;61938;48.652;9.292;2022-11-18T01:35:14;7.60;99.90
73643;DHT22;61938;48.652;9.292;2022-11-18T01:37:39;7.60;99.90
73643;DHT22;61938;48.652;9.292;2022-11-18T01:40:07;7.60;99.90
73643;DHT22;61938;48.652;9.292;2022-11-18T01:42:33;7.60;99.90
73643;DHT22;61938;48.652;9.292;2022-11-18T01:45:02;7.60;99.90
73643;DHT22;61938;48.652;9.292;2022-11-18T01:47:35;7.60;99.90
73643;DHT22;61938;48.652;9.292;2022-11-18T01:50:02;7.60;99.90
73643;DHT22;61938;48.652;9.292;2022-11-18T01:52:28;7.60;99.90
73643;DHT22;61938;48.652;9.292;2022-11-18T01:54:58;7.60;99.90
73643;DHT22;61938;48.652;9.292;2022-11-18T01:57:27;7.60;99.90
73643;DHT22;61938;48.652;9.292;2022-11-18T01:59:57;7.70;99.90
73643;DHT22;61938;48.652;9.292;2022-11-18T02:02:23;7.60;99.90
73643;DHT22;61938;48.652;9.292;2022-11-18T02:04:51;7.60;99.90
73643;DHT22;61938;48.652;9.292;2022-11-18T02:07:20;7.60;99.90
73643;DHT22;61938;48.652;9.292;2022-11-18T02:09:46;7.60;99.90
73643;DHT22;61938;48.652;9.292;2022-11-18T02:12:12;7.60;99.90
73643;DHT22;61938;48.652;9.292;2022-11-18T02:14:41;7.60;99.90
73643;DHT22;61938;48.652;9.292;2022-11-18T02:17:32;7.60;99.90
73643;DHT22;61938;48.652;9.292;2022-11-18T02:29:13;7.50;99.90
73643;DHT22;61938;48.652;9.292;2022-11-18T02:36:56;7.50;99.90
73643;DHT22;61938;48.652;9.292;2022-11-18T02:39:32;7.50;99.90
73643;DHT22;61938;48.652;9.292;2022-11-18T02:42:00;7.50;99.90
73643;DHT22;61938;48.652;9.292;2022-11-18T02:44:28;7.50;99.90
73643;DHT22;61938;48.652;9.292;2022-11-18T02:46:58;7.50;99.90
73643;DHT22;61938;48.652;9.292;2022-11-18T02:49:33;7.50;99.90
73643;DHT22;61938;48.652;9.292;2022-11-18T02:52:00;7.40;99.90
73643;DHT22;61938;48.652;9.292;2022-11-18T02:54:26;7.50;99.90
73643;DHT22;61938;48.652;9.292;2022-11-18T02:56:54;7.50;99.90
73643;DHT22;61938;48.652;9.292;2022-11-18T02:59:20;7.50;99.90
73643;DHT22;61938;48.652;9.292;2022-11-18T03:01:46;7.50;99.90
73643;DHT22;61938;48.652;9.292;2022-11-18T03:04:13;7.50;99.90
73643;DHT22;61938;48.652;9.292;2022-11-18T03:06:55;7.50;99.90
73643;DHT22;61938;48.652;9.292;2022-11-18T03:09:28;7.50;99.90
73643;DHT22;61938;48.652;9.292;2022-11-18T03:12:28;7.50;99.90
73643;DHT22;61938;48.652;9.292;2022-11-18T03:15:17;7.50;99.90
73643;DHT22;61938;48.652;9.292;2022-11-18T03:17:59;7.40;99.90
73643;DHT22;61938;48.652;9.292;2022-11-18T03:20:29;7.40;99.90
73643;DHT22;61938;48.652;9.292;2022-11-18T03:23:13;7.40;99.90
73643;DHT22;61938;48.652;9.292;2022-11-18T03:28:27;7.40;99.90
73643;DHT22;61938;48.652;9.292;2022-11-18T03:31:09;7.40;99.90
73643;DHT22;61938;48.652;9.292;2022-11-18T03:33:42;7.50;99.90
73643;DHT22;61938;48.652;9.292;2022-11-18T03:36:11;7.50;99.90
73643;DHT22;61938;48.652;9.292;2022-11-18T03:38:43;7.40;99.90
73643;DHT22;61938;48.652;9.292;2022-11-18T03:41:11;7.40;99.90
73643;DHT22;61938;48.652;9.292;2022-11-18T03:43:46;7.40;99.90
73643;DHT22;61938;48.652;9.292;2022-11-18T03:46:20;7.40;99.90
73643;DHT22;61938;48.652;9.292;2022-11-18T03:48:53;7.40;99.90
73643;DHT22;61938;48.652;9.292;2022-11-18T03:51:23;7.40;99.90
73643;DHT22;61938;48.652;9.292;2022-11-18T03:54:00;7.40;99.90
73643;DHT22;61938;48.652;9.292;2022-11-18T03:56:35;7.40;99.90
73643;DHT22;61938;48.652;9.292;2022-11-18T03:59:06;7.40;99.90
73643;DHT22;61938;48.652;9.292;2022-11-18T04:01:46;7.40;99.90
73643;DHT22;61938;48.652;9.292;2022-11-18T04:04:13;7.40;99.90
73643;DHT22;61938;48.652;9.292;2022-11-18T04:09:17;7.40;99.90
73643;DHT22;61938;48.652;9.292;2022-11-18T04:11:48;7.40;99.90
73643;DHT22;61938;48.652;9.292;2022-11-18T04:14:28;7.40;99.90
73643;DHT22;61938;48.652;9.292;2022-11-18T04:16:55;7.40;99.90
73643;DHT22;61938;48.652;9.292;2022-11-18T04:19:21;7.30;99.90
73643;DHT22;61938;48.652;9.292;2022-11-18T04:21:49;7.40;99.90
73643;DHT22;61938;48.652;9.292;2022-11-18T04:24:15;7.30;99.90
73643;DHT22;61938;48.652;9.292;2022-11-18T04:26:41;7.30;99.90
73643;DHT22;61938;48.652;9.292;2022-11-18T04:29:07;7.30;99.90
73643;DHT22;61938;48.652;9.292;2022-11-18T04:31:32;7.30;99.90
73643;DHT22;61938;48.652;9.292;2022-11-18T04:33:58;7.30;99.90
73643;DHT22;61938;48.652;9.292;2022-11-18T04:36:23;7.30;99.90
73643;DHT22;61938;48.652;9.292;2022-11-18T04:38:49;7.30;99.90
73643;DHT22;61938;48.652;9.292;2022-11-18T04:41:14;7.20;99.90
73643;DHT22;61938;48.652;9.292;2022-11-18T04:43:41;7.20;99.90
73643;DHT22;61938;48.652;9.292;2022-11-18T04:46:06;7.20;99.90
73643;DHT22;61938;48.652;9.292;2022-11-18T04:48:32;7.20;99.90
73643;DHT22;61938;48.652;9.292;2022-11-18T04:51:02;7.20;99.90
73643;DHT22;61938;48.652;9.292;2022-11-18T04:53:28;7.20;99.90
73643;DHT22;61938;48.652;9.292;2022-11-18T04:55:53;7.20;99.90
73643;DHT22;61938;48.652;9.292;2022-11-18T04:58:19;7.20;99.90
73643;DHT22;61938;48.652;9.292;2022-11-18T05:00:44;7.20;99.90
73643;DHT22;61938;48.652;9.292;2022-11-18T05:03:10;7.20;99.90
73643;DHT22;61938;48.652;9.292;2022-11-18T05:05:35;7.20;99.90
73643;DHT22;61938;48.652;9.292;2022-11-18T05:08:01;7.20;99.90
73643;DHT22;61938;48.652;9.292;2022-11-18T05:10:26;7.20;99.90
73643;DHT22;61938;48.652;9.292;2022-11-18T05:12:52;7.20;99.90
73643;DHT22;61938;48.652;9.292;2022-11-18T05:15:19;7.20;99.90
73643;DHT22;61938;48.652;9.292;2022-11-18T05:17:45;7.20;99.90
73643;DHT22;61938;48.652;9.292;2022-11-18T05:20:11;7.10;99.90
73643;DHT22;61938;48.652;9.292;2022-11-18T05:22:37;7.10;99.90
73643;DHT22;61938;48.652;9.292;2022-11-18T05:25:03;7.00;99.90
73643;DHT22;61938;48.652;9.292;2022-11-18T05:27:29;7.00;99.90
73643;DHT22;61938;48.652;9.292;2022-11-18T05:29:55;6.90;99.90
73643;DHT22;61938;48.652;9.292;2022-11-18T05:32:20;6.90;99.90
73643;DHT22;61938;48.652;9.292;2022-11-18T05:34:46;6.90;99.90
73643;DHT22;61938;48.652;9.292;2022-11-18T05:37:11;6.90;99.90
73643;DHT22;61938;48.652;9.292;2022-11-18T05:39:37;6.90;99.90
73643;DHT22;61938;48.652;9.292;2022-11-18T05:42:03;6.90;99.90
73643;DHT22;61938;48.652;9.292;2022-11-18T05:44:47;6.90;99.90
73643;DHT22;61938;48.652;9.292;2022-11-18T05:47:13;6.80;99.90
73643;DHT22;61938;48.652;9.292;2022-11-18T05:49:38;6.90;99.90
73643;DHT22;61938;48.652;9.292;2022-11-18T05:52:04;6.80;99.90
73643;DHT22;61938;48.652;9.292;2022-11-18T05:54:30;6.80;99.90
73643;DHT22;61938;48.652;9.292;2022-11-18T05:56:56;6.80;99.90
73643;DHT22;61938;48.652;9.292;2022-11-18T05:59:21;6.80;99.90
73643;DHT22;61938;48.652;9.292;2022-11-18T06:04:26;6.80;99.90
73643;DHT22;61938;48.652;9.292;2022-11-18T06:07:06;6.80;99.90
73643;DHT22;61938;48.652;9.292;2022-11-18T06:09:36;6.80;99.90
73643;DHT22;61938;48.652;9.292;2022-11-18T06:12:04;6.80;99.90
73643;DHT22;61938;48.652;9.292;2022-11-18T06:14:40;6.80;99.90
73643;DHT22;61938;48.652;9.292;2022-11-18T06:17:10;6.80;99.90
73643;DHT22;61938;48.652;9.292;2022-11-18T06:19:36;6.80;99.90
73643;DHT22;61938;48.652;9.292;2022-11-18T06:22:02;6.80;99.90
73643;DHT22;61938;48.652;9.292;2022-11-18T06:24:29;6.70;99.90
73643;DHT22;61938;48.652;9.292;2022-11-18T06:26:54;6.80;99.90
73643;DHT22;61938;48.652;9.292;2022-11-18T06:29:20;6.80;99.90
73643;DHT22;61938;48.652;9.292;2022-11-18T06:31:46;6.70;99.90
73643;DHT22;61938;48.652;9.292;2022-11-18T06:34:11;6.70;99.90
73643;DHT22;61938;48.652;9.292;2022-11-18T06:36:37;6.70;99.90
73643;DHT22;61938;48.652;9.292;2022-11-18T06:39:04;6.70;99.90
73643;DHT22;61938;48.652;9.292;2022-11-18T06:41:30;6.70;99.90
73643;DHT22;61938;48.652;9.292;2022-11-18T06:43:55;6.70;99.90
73643;DHT22;61938;48.652;9.292;2022-11-18T06:46:21;6.70;99.90
73643;DHT22;61938;48.652;9.292;2022-11-18T06:49:05;6.70;99.90
73643;DHT22;61938;48.652;9.292;2022-11-18T06:51:30;6.70;99.90
73643;DHT22;61938;48.652;9.292;2022-11-18T06:53:56;6.60;99.90
73643;DHT22;61938;48.652;9.292;2022-11-18T06:56:22;6.60;99.90
73643;DHT22;61938;48.652;9.292;2022-11-18T06:58:52;6.60;99.90
73643;DHT22;61938;48.652;9.292;2022-11-18T07:01:26;6.60;99.90
73643;DHT22;61938;48.652;9.292;2022-11-18T07:03:52;6.70;99.90
73643;DHT22;61938;48.652;9.292;2022-11-18T07:06:20;6.70;99.90
73643;DHT22;61938;48.652;9.292;2022-11-18T07:08:46;6.70;99.90
73643;DHT22;61938;48.652;9.292;2022-11-18T07:11:14;6.70;99.90
73643;DHT22;61938;48.652;9.292;2022-11-18T07:13:40;6.70;99.90
73643;DHT22;61938;48.652;9.292;2022-11-18T07:16:07;6.70;99.90
73643;DHT22;61938;48.652;9.292;2022-11-18T07:18:35;6.80;99.90
73643;DHT22;61938;48.652;9.292;2022-11-18T07:21:06;6.80;99.90
73643;DHT22;61938;48.652;9.292;2022-11-18T07:23:33;6.70;99.90
73643;DHT22;61938;48.652;9.292;2022-11-18T07:25:59;6.70;99.90
73643;DHT22;61938;48.652;9.292;2022-11-18T07:28:24;6.80;99.90
73643;DHT22;61938;48.652;9.292;2022-11-18T07:30:50;6.80;99.90
73643;DHT22;61938;48.652;9.292;2022-11-18T07:33:16;6.80;99.90
73643;DHT22;61938;48.652;9.292;2022-11-18T07:35:42;6.80;99.90
73643;DHT22;61938;48.652;9.292;2022-11-18T07:38:07;6.80;99.90
73643;DHT22;61938;48.652;9.292;2022-11-18T07:40:33;6.80;99.90
73643;DHT22;61938;48.652;9.292;2022-11-18T07:42:58;6.90;99.90
73643;DHT22;61938;48.652;9.292;2022-11-18T07:45:24;6.90;99.90
73643;DHT22;61938;48.652;9.292;2022-11-18T07:47:50;6.90;99.90
73643;DHT22;61938;48.652;9.292;2022-11-18T07:50:18;6.90;99.90
73643;DHT22;61938;48.652;9.292;2022-11-18T07:52:44;6.90;99.90
73643;DHT22;61938;48.652;9.292;2022-11-18T07:55:09;6.90;99.90
73643;DHT22;61938;48.652;9.292;2022-11-18T07:57:35;7.00;99.90
73643;DHT22;61938;48.652;9.292;2022-11-18T08:00:00;7.00;99.90
73643;DHT22;61938;48.652;9.292;2022-11-18T08:02:26;7.00;99.90
73643;DHT22;61938;48.652;9.292;2022-11-18T08:04:52;7.00;99.90
73643;DHT22;61938;48.652;9.292;2022-11-18T08:07:17;7.10;99.90
73643;DHT22;61938;48.652;9.292;2022-11-18T08:09:43;7.10;99.90
73643;DHT22;61938;48.652;9.292;2022-11-18T08:12:08;7.10;99.90
73643;DHT22;61938;48.652;9.292;2022-11-18T08:14:34;7.10;99.90
73643;DHT22;61938;48.652;9.292;2022-11-18T08:16:59;7.10;99.90
73643;DHT22;61938;48.652;9.292;2022-11-18T08:19:25;7.10;99.90
73643;DHT22;61938;48.652;9.292;2022-11-18T08:21:50;7.20;99.90
73643;DHT22;61938;48.652;9.292;2022-11-18T08:24:16;7.20;99.90
73643;DHT22;61938;48.652;9.292;2022-11-18T08:26:42;7.20;99.90
73643;DHT22;61938;48.652;9.292;2022-11-18T08:29:07;7.20;99.90
73643;DHT22;61938;48.652;9.292;2022-11-18T08:31:33;7.20;99.90
73643;DHT22;61938;48.652;9.292;2022-11-18T08:34:04;7.20;99.90
73643;DHT22;61938;48.652;9.292;2022-11-18T08:36:32;7.30;99.90
73643;DHT22;61938;48.652;9.292;2022-11-18T08:39:00;7.30;99.90
73643;DHT22;61938;48.652;9.292;2022-11-18T08:41:34;7.20;99.90
73643;DHT22;61938;48.652;9.292;2022-11-18T08:44:01;7.20;99.90
73643;DHT22;61938;48.652;9.292;2022-11-18T08:46:27;7.20;99.90
73643;DHT22;61938;48.652;9.292;2022-11-18T08:48:53;7.30;99.90
73643;DHT22;61938;48.652;9.292;2022-11-18T08:51:18;7.30;99.90
73643;DHT22;61938;48.652;9.292;2022-11-18T08:53:44;7.30;99.90
73643;DHT22;61938;48.652;9.292;2022-11-18T08:56:14;7.30;99.90
73643;DHT22;61938;48.652;9.292;2022-11-18T08:58:41;7.30;99.90
73643;DHT22;61938;48.652;9.292;2022-11-18T09:01:07;7.30;99.90
73643;DHT22;61938;48.652;9.292;2022-11-18T09:03:33;7.40;99.90
73643;DHT22;61938;48.652;9.292;2022-11-18T09:06:08;7.40;99.90
73643;DHT22;61938;48.652;9.292;2022-11-18T09:08:34;7.40;99.90
73643;DHT22;61938;48.652;9.292;2022-11-18T09:11:08;7.40;99.90
73643;DHT22;61938;48.652;9.292;2022-11-18T09:13:34;7.40;99.90
73643;DHT22;61938;48.652;9.292;2022-11-18T09:16:00;7.40;99.90
73643;DHT22;61938;48.652;9.292;2022-11-18T09:18:26;7.40;99.90
73643;DHT22;61938;48.652;9.292;2022-11-18T09:20:56;7.40;99.90
73643;DHT22;61938;48.652;9.292;2022-11-18T09:23:22;7.50;99.90
73643;DHT22;61938;48.652;9.292;2022-11-18T09:25:48;7.50;99.90
73643;DHT22;61938;48.652;9.292;2022-11-18T09:28:13;7.50;99.90
73643;DHT22;61938;48.652;9.292;2022-11-18T09:30:39;7.50;99.90
73643;DHT22;61938;48.652;9.292;2022-11-18T09:33:05;7.50;99.90
73643;DHT22;61938;48.652;9.292;2022-11-18T09:35:32;7.50;99.90
73643;DHT22;61938;48.652;9.292;2022-11-18T09:37:58;7.50;99.90
73643;DHT22;61938;48.652;9.292;2022-11-18T09:40:24;7.50;99.90
73643;DHT22;61938;48.652;9.292;2022-11-18T09:43:00;7.50;99.90
73643;DHT22;61938;48.652;9.292;2022-11-18T09:45:43;7.50;99.90
73643;DHT22;61938;48.652;9.292;2022-11-18T09:48:19;7.50;99.90
73643;DHT22;61938;48.652;9.292;2022-11-18T09:51:09;7.50;99.90
73643;DHT22;61938;48.652;9.292;2022-11-18T09:53:40;7.50;99.90
73643;DHT22;61938;48.652;9.292;2022-11-18T09:56:14;7.60;99.90
73643;DHT22;61938;48.652;9.292;2022-11-18T09:58:41;7.60;99.90
73643;DHT22;61938;48.652;9.292;2022-11-18T10:01:16;7.60;99.90
73643;DHT22;61938;48.652;9.292;2022-11-18T10:03:42;7.70;99.90
73643;DHT22;61938;48.652;9.292;2022-11-18T10:08:56;7.80;99.90
73643;DHT22;61938;48.652;9.292;2022-11-18T10:11:27;7.80;99.90
73643;DHT22;61938;48.652;9.292;2022-11-18T10:16:47;7.80;99.90
73643;DHT22;61938;48.652;9.292;2022-11-18T10:22:21;7.80;99.90
73643;DHT22;61938;48.652;9.292;2022-11-18T10:24:52;7.90;99.90
73643;DHT22;61938;48.652;9.292;2022-11-18T10:27:19;8.00;99.90
73643;DHT22;61938;48.652;9.292;2022-11-18T10:29:50;8.00;99.90
73643;DHT22;61938;48.652;9.292;2022-11-18T10:32:18;8.10;99.90
73643;DHT22;61938;48.652;9.292;2022-11-18T10:34:55;8.20;99.90
73643;DHT22;61938;48.652;9.292;2022-11-18T10:37:31;8.30;99.90
73643;DHT22;61938;48.652;9.292;2022-11-18T10:39:59;8.30;99.90
73643;DHT22;61938;48.652;9.292;2022-11-18T10:42:34;8.40;99.90
73643;DHT22;61938;48.652;9.292;2022-11-18T10:48:23;8.50;99.90
73643;DHT22;61938;48.652;9.292;2022-11-18T10:50:50;8.50;99.90
73643;DHT22;61938;48.652;9.292;2022-11-18T10:53:33;8.50;99.90
73643;DHT22;61938;48.652;9.292;2022-11-18T10:56:01;8.50;99.90
73643;DHT22;61938;48.652;9.292;2022-11-18T10:58:29;8.50;99.90
73643;DHT22;61938;48.652;9.292;2022-11-18T11:01:23;8.50;99.90
73643;DHT22;61938;48.652;9.292;2022-11-18T11:04:10;8.50;99.90
73643;DHT22;61938;48.652;9.292;2022-11-18T11:06:37;8.50;99.90
73643;DHT22;61938;48.652;9.292;2022-11-18T11:11:42;8.50;99.90
73643;DHT22;61938;48.652;9.292;2022-11-18T11:14:26;8.50;99.90
73643;DHT22;61938;48.652;9.292;2022-11-18T11:17:05;8.60;99.90
73643;DHT22;61938;48.652;9.292;2022-11-18T11:22:25;8.80;99.90
73643;DHT22;61938;48.652;9.292;2022-11-18T11:24:50;8.80;99.90
73643;DHT22;61938;48.652;9.292;2022-11-18T11:27:32;8.80;99.90
73643;DHT22;61938;48.652;9.292;2022-11-18T11:35:32;8.90;99.90
73643;DHT22;61938;48.652;9.292;2022-11-18T11:38:03;9.10;99.90
73643;DHT22;61938;48.652;9.292;2022-11-18T11:40:49;9.20;99.90
73643;DHT22;61938;48.652;9.292;2022-11-18T11:43:30;9.40;99.90
73643;DHT22;61938;48.652;9.292;2022-11-18T11:49:05;9.60;99.90
73643;DHT22;61938;48.652;9.292;2022-11-18T11:54:29;9.50;99.90
73643;DHT22;61938;48.652;9.292;2022-11-18T11:57:04;9.50;99.90
73643;DHT22;61938;48.652;9.292;2022-11-18T12:02:36;9.70;99.90
73643;DHT22;61938;48.652;9.292;2022-11-18T12:05:39;9.70;99.90
73643;DHT22;61938;48.652;9.292;2022-11-18T12:08:19;9.70;99.90
73643;DHT22;61938;48.652;9.292;2022-11-18T12:10:59;9.70;99.90
73643;DHT22;61938;48.652;9.292;2022-11-18T12:14:24;9.60;99.90
73643;DHT22;61938;48.652;9.292;2022-11-18T12:16:59;9.60;99.90
73643;DHT22;61938;48.652;9.292;2022-11-18T12:19:26;9.50;99.90
73643;DHT22;61938;48.652;9.292;2022-11-18T12:21:56;9.50;99.90
73643;DHT22;61938;48.652;9.292;2022-11-18T12:24:23;9.40;99.90
73643;DHT22;61938;48.652;9.292;2022-11-18T12:26:51;9.40;99.90
73643;DHT22;61938;48.652;9.292;2022-11-18T12:31:43;9.40;99.90
73643;DHT22;61938;48.652;9.292;2022-11-18T12:36:53;9.40;99.90
73643;DHT22;61938;48.652;9.292;2022-11-18T12:41:58;9.30;99.90
73643;DHT22;61938;48.652;9.292;2022-11-18T12:44:45;9.30;99.90
73643;DHT22;61938;48.652;9.292;2022-11-18T12:47:13;9.30;99.90
73643;DHT22;61938;48.652;9.292;2022-11-18T12:55:01;9.30;99.90
73643;DHT22;61938;48.652;9.292;2022-11-18T12:57:29;9.30;99.90
73643;DHT22;61938;48.652;9.292;2022-11-18T12:59:56;9.30;99.90
73643;DHT22;61938;48.652;9.292;2022-11-18T13:02:24;9.30;99.90
73643;DHT22;61938;48.652;9.292;2022-11-18T13:05:09;9.30;99.90
73643;DHT22;61938;48.652;9.292;2022-11-18T13:07:48;9.20;99.90
73643;DHT22;61938;48.652;9.292;2022-11-18T13:10:38;9.20;99.90
73643;DHT22;61938;48.652;9.292;2022-11-18T13:13:10;9.20;99.90
73643;DHT22;61938;48.652;9.292;2022-11-18T13:15:41;9.20;99.90
73643;DHT22;61938;48.652;9.292;2022-11-18T13:18:30;9.20;99.90
73643;DHT22;61938;48.652;9.292;2022-11-18T13:20:56;9.20;99.90
73643;DHT22;61938;48.652;9.292;2022-11-18T13:23:30;9.30;99.90
73643;DHT22;61938;48.652;9.292;2022-11-18T13:26:23;9.40;99.90
73643;DHT22;61938;48.652;9.292;2022-11-18T13:29:25;9.60;99.90
73643;DHT22;61938;48.652;9.292;2022-11-18T13:35:17;9.90;99.90
73643;DHT22;61938;48.652;9.292;2022-11-18T13:37:52;9.90;99.90
73643;DHT22;61938;48.652;9.292;2022-11-18T13:40:26;9.90;99.90
73643;DHT22;61938;48.652;9.292;2022-11-18T13:42:52;9.90;99.90
73643;DHT22;61938;48.652;9.292;2022-11-18T13:45:19;9.80;99.90
73643;DHT22;61938;48.652;9.292;2022-11-18T13:48:06;9.80;99.90
73643;DHT22;61938;48.652;9.292;2022-11-18T13:50:38;9.70;99.90
73643;DHT22;61938;48.652;9.292;2022-11-18T13:53:32;9.70;99.90
73643;DHT22;61938;48.652;9.292;2022-11-18T13:58:41;9.70;99.90
73643;DHT22;61938;48.652;9.292;2022-11-18T14:01:16;9.60;99.90
73643;DHT22;61938;48.652;9.292;2022-11-18T14:04:00;9.50;99.90
73643;DHT22;61938;48.652;9.292;2022-11-18T14:09:14;9.50;99.90
73643;DHT22;61938;48.652;9.292;2022-11-18T14:11:43;9.40;99.90
73643;DHT22;61938;48.652;9.292;2022-11-18T14:14:10;9.40;99.90
73643;DHT22;61938;48.652;9.292;2022-11-18T14:16:39;9.30;99.90
73643;DHT22;61938;48.652;9.292;2022-11-18T14:19:06;9.20;99.90
73643;DHT22;61938;48.652;9.292;2022-11-18T14:21:34;9.10;99.90
73643;DHT22;61938;48.652;9.292;2022-11-18T14:24:00;9.00;99.90
73643;DHT22;61938;48.652;9.292;2022-11-18T14:26:28;9.00;99.90
73643;DHT22;61938;48.652;9.292;2022-11-18T14:28:58;8.90;99.90
73643;DHT22;61938;48.652;9.292;2022-11-18T14:31:27;8.90;99.90
73643;DHT22;61938;48.652;9.292;2022-11-18T14:34:24;8.80;99.90
73643;DHT22;61938;48.652;9.292;2022-11-18T14:36:51;8.80;99.90
73643;DHT22;61938;48.652;9.292;2022-11-18T14:39:30;8.70;99.90
73643;DHT22;61938;48.652;9.292;2022-11-18T14:41:57;8.70;99.90
73643;DHT22;61938;48.652;9.292;2022-11-18T14:44:24;8.60;99.90
73643;DHT22;61938;48.652;9.292;2022-11-18T14:46:58;8.50;99.90
73643;DHT22;61938;48.652;9.292;2022-11-18T14:49:26;8.50;99.90
73643;DHT22;61938;48.652;9.292;2022-11-18T14:51:53;8.40;99.90
73643;DHT22;61938;48.652;9.292;2022-11-18T14:54:21;8.40;99.90
73643;DHT22;61938;48.652;9.292;2022-11-18T14:56:48;8.40;99.90
73643;DHT22;61938;48.652;9.292;2022-11-18T14:59:16;8.40;99.90
73643;DHT22;61938;48.652;9.292;2022-11-18T15:01:43;8.50;99.90
73643;DHT22;61938;48.652;9.292;2022-11-18T15:04:09;8.40;99.90
73643;DHT22;61938;48.652;9.292;2022-11-18T15:06:35;8.50;99.90
73643;DHT22;61938;48.652;9.292;2022-11-18T15:09:01;8.50;99.90
73643;DHT22;61938;48.652;9.292;2022-11-18T15:11:27;8.40;99.90
73643;DHT22;61938;48.652;9.292;2022-11-18T15:13:53;8.30;99.90
73643;DHT22;61938;48.652;9.292;2022-11-18T15:16:22;8.20;99.90
73643;DHT22;61938;48.652;9.292;2022-11-18T15:18:51;8.20;99.90
73643;DHT22;61938;48.652;9.292;2022-11-18T15:21:17;8.20;99.90
73643;DHT22;61938;48.652;9.292;2022-11-18T15:23:43;8.00;99.90
73643;DHT22;61938;48.652;9.292;2022-11-18T15:26:33;8.00;99.90
73643;DHT22;61938;48.652;9.292;2022-11-18T15:29:00;8.00;99.90
73643;DHT22;61938;48.652;9.292;2022-11-18T15:31:25;7.90;99.90
73643;DHT22;61938;48.652;9.292;2022-11-18T15:33:52;7.90;99.90
73643;DHT22;61938;48.652;9.292;2022-11-18T15:36:19;7.80;99.90
73643;DHT22;61938;48.652;9.292;2022-11-18T15:38:46;7.80;99.90
73643;DHT22;61938;48.652;9.292;2022-11-18T15:41:15;7.80;99.90
73643;DHT22;61938;48.652;9.292;2022-11-18T15:43:42;7.80;99.90
73643;DHT22;61938;48.652;9.292;2022-11-18T15:46:08;7.80;99.90
73643;DHT22;61938;48.652;9.292;2022-11-18T15:48:34;7.70;99.90
73643;DHT22;61938;48.652;9.292;2022-11-18T15:50:59;7.70;99.90
73643;DHT22;61938;48.652;9.292;2022-11-18T15:53:25;7.70;99.90
73643;DHT22;61938;48.652;9.292;2022-11-18T15:55:51;7.70;99.90
73643;DHT22;61938;48.652;9.292;2022-11-18T15:58:16;7.80;99.90
73643;DHT22;61938;48.652;9.292;2022-11-18T16:00:42;7.80;99.90
73643;DHT22;61938;48.652;9.292;2022-11-18T16:03:07;7.90;99.90
73643;DHT22;61938;48.652;9.292;2022-11-18T16:05:33;7.90;99.90
73643;DHT22;61938;48.652;9.292;2022-11-18T16:07:58;7.90;99.90
73643;DHT22;61938;48.652;9.292;2022-11-18T16:10:24;7.90;99.90
73643;DHT22;61938;48.652;9.292;2022-11-18T16:13:08;7.90;99.90
73643;DHT22;61938;48.652;9.292;2022-11-18T16:15:33;7.90;99.90
73643;DHT22;61938;48.652;9.292;2022-11-18T16:18:09;7.90;99.90
73643;DHT22;61938;48.652;9.292;2022-11-18T16:20:34;7.90;99.90
73643;DHT22;61938;48.652;9.292;2022-11-18T16:23:00;7.90;99.90
73643;DHT22;61938;48.652;9.292;2022-11-18T16:25:26;7.80;99.90
73643;DHT22;61938;48.652;9.292;2022-11-18T16:27:53;7.80;99.90
73643;DHT22;61938;48.652;9.292;2022-11-18T16:30:18;7.80;99.90
73643;DHT22;61938;48.652;9.292;2022-11-18T16:33:03;7.80;99.90
73643;DHT22;61938;48.652;9.292;2022-11-18T16:35:28;7.80;99.90
73643;DHT22;61938;48.652;9.292;2022-11-18T16:37:54;7.80;99.90
73643;DHT22;61938;48.652;9.292;2022-11-18T16:40:20;7.80;99.90
73643;DHT22;61938;48.652;9.292;2022-11-18T16:42:52;7.80;99.90
73643;DHT22;61938;48.652;9.292;2022-11-18T16:45:17;7.80;99.90
73643;DHT22;61938;48.652;9.292;2022-11-18T16:47:43;7.70;99.90
73643;DHT22;61938;48.652;9.292;2022-11-18T16:50:09;7.80;99.90
73643;DHT22;61938;48.652;9.292;2022-11-18T16:52:35;7.70;99.90
73643;DHT22;61938;48.652;9.292;2022-11-18T16:55:01;7.70;99.90
73643;DHT22;61938;48.652;9.292;2022-11-18T16:57:26;7.70;99.90
73643;DHT22;61938;48.652;9.292;2022-11-18T16:59:52;7.60;99.90
73643;DHT22;61938;48.652;9.292;2022-11-18T17:02:17;7.60;99.90
73643;DHT22;61938;48.652;9.292;2022-11-18T17:04:46;7.60;99.90
73643;DHT22;61938;48.652;9.292;2022-11-18T17:07:12;7.60;99.90
73643;DHT22;61938;48.652;9.292;2022-11-18T17:09:37;7.60;99.90
73643;DHT22;61938;48.652;9.292;2022-11-18T17:12:03;7.50;99.90
73643;DHT22;61938;48.652;9.292;2022-11-18T17:14:29;7.50;99.90
73643;DHT22;61938;48.652;9.292;2022-11-18T17:16:55;7.50;99.90